Time;durP1;ratioP1;P1;durP2;ratioP2;P2;SDS_P1;SDS_P2;PMS_P1;PMS_P2;Temp;Humidity;BMP_temperature;BMP_pressure;BME280_temperature;BME280_humidity;BME280_pressure;Samples;Min_cycle;Max_cycle;Signal;HPM_P1;HPM_P2
2024/03/03 00:02:08;;;;;;;12.67;7.83;;;;;;;9.43;100.00;100061.72;4881222;29;20455;-66
2024/03/03 00:04:37;;;;;;;11.00;9.00;;;;;;;9.61;100.00;100063.72;4878298;29;20456;-66
2024/03/03 00:07:05;;;;;;;11.63;6.27;;;;;;;9.61;100.00;100063.72;4880788;29;20877;-64
2024/03/03 00:09:34;;;;;;;13.73;5.93;;;;;;;9.62;100.00;100065.38;4880750;29;20422;-66
2024/03/03 00:12:04;;;;;;;14.77;8.53;;;;;;;9.64;100.00;100063.25;4880144;29;20477;-67
2024/03/03 00:14:34;;;;;;;14.03;8.17;;;;;;;9.53;100.00;100055.88;4879531;29;20501;-64
2024/03/03 00:17:04;;;;;;;14.82;7.68;;;;;;;9.49;100.00;100060.84;4878059;29;20908;-66
2024/03/03 00:19:34;;;;;;;11.47;8.60;;;;;;;9.47;100.00;100051.31;4882192;29;20223;-65
2024/03/03 00:22:03;;;;;;;14.70;9.15;;;;;;;9.44;100.00;100051.75;4881583;29;20409;-65
2024/03/03 00:24:32;;;;;;;9.60;5.03;;;;;;;9.46;100.00;100049.66;4881103;29;20193;-66
2024/03/03 00:27:01;;;;;;;18.23;9.50;;;;;;;9.40;100.00;100045.09;4881107;29;20210;-65
2024/03/03 00:29:30;;;;;;;13.03;7.17;;;;;;;9.39;100.00;100049.66;4882292;29;20984;-67
2024/03/03 00:31:59;;;;;;;15.40;8.50;;;;;;;9.40;100.00;100056.72;4880238;29;20433;-67
2024/03/03 00:34:27;;;;;;;11.88;8.00;;;;;;;9.32;100.00;100048.06;4881844;29;20562;-62
2024/03/03 00:36:58;;;;;;;19.17;9.60;;;;;;;9.30;100.00;100052.81;4878530;29;20716;-64
2024/03/03 00:39:27;;;;;;;14.60;9.23;;;;;;;9.27;100.00;100043.31;4881412;29;20518;-66
2024/03/03 00:41:56;;;;;;;20.25;9.57;;;;;;;9.28;100.00;100041.44;4882144;29;20258;-66
2024/03/03 00:44:25;;;;;;;20.42;11.60;;;;;;;9.24;100.00;100045.59;4876585;29;20214;-67
2024/03/03 00:46:54;;;;;;;18.23;9.82;;;;;;;9.24;100.00;100035.66;4881251;29;20198;-66
2024/03/03 00:49:23;;;;;;;23.10;11.20;;;;;;;9.15;100.00;100031.50;4879685;29;20230;-66
2024/03/03 00:51:52;;;;;;;12.38;6.80;;;;;;;9.13;100.00;100034.44;4876029;29;20196;-66
2024/03/03 00:54:22;;;;;;;24.27;9.70;;;;;;;9.09;100.00;100043.19;4877419;29;20694;-67
2024/03/03 00:56:51;;;;;;;16.50;8.70;;;;;;;9.11;100.00;100027.56;4879494;29;20215;-66
2024/03/03 00:59:20;;;;;;;19.02;8.82;;;;;;;9.06;100.00;100039.00;4876665;29;20218;-66
2024/03/03 01:01:49;;;;;;;15.35;7.68;;;;;;;9.04;100.00;100034.88;4873052;29;20448;-65
2024/03/03 01:04:18;;;;;;;18.63;9.60;;;;;;;8.97;100.00;100023.28;4879767;29;20277;-65
2024/03/03 01:06:47;;;;;;;21.80;11.07;;;;;;;8.94;100.00;100035.34;4875042;29;20443;-66
2024/03/03 01:09:17;;;;;;;16.93;10.53;;;;;;;8.92;100.00;100031.16;4877047;29;20214;-66
2024/03/03 01:11:51;;;;;;;19.90;11.05;;;;;;;8.92;100.00;100039.28;4876316;29;20504;-66
2024/03/03 01:14:21;;;;;;;19.27;11.07;;;;;;;8.93;100.00;100040.94;4879140;29;20230;-66
2024/03/03 01:16:50;;;;;;;15.10;8.73;;;;;;;8.85;100.00;100036.59;4878321;29;20207;-66
2024/03/03 01:19:19;;;;;;;17.52;11.40;;;;;;;8.84;100.00;100040.34;4879099;29;20215;-65
2024/03/03 01:21:48;;;;;;;17.20;8.63;;;;;;;8.83;100.00;100033.28;4880604;29;20215;-66
2024/03/03 01:24:17;;;;;;;15.57;7.63;;;;;;;8.76;100.00;100035.19;4876651;29;20463;-65
2024/03/03 01:26:47;;;;;;;21.63;8.60;;;;;;;8.86;100.00;100032.03;4880554;29;20183;-65
2024/03/03 01:29:17;;;;;;;18.38;9.25;;;;;;;8.78;100.00;100041.19;4875029;29;20227;-65
2024/03/03 01:31:46;;;;;;;9.32;7.13;;;;;;;8.72;100.00;100039.31;4876143;29;20222;-64
2024/03/03 01:34:15;;;;;;;11.85;8.73;;;;;;;8.73;100.00;100041.81;4878581;29;20195;-66
2024/03/03 01:36:44;;;;;;;16.30;10.82;;;;;;;8.77;100.00;100047.59;4880753;29;20211;-65
2024/03/03 01:39:13;;;;;;;13.45;6.45;;;;;;;8.69;100.00;100042.44;4879925;29;20589;-66
2024/03/03 01:41:47;;;;;;;11.27;7.72;;;;;;;8.68;100.00;100051.56;4875327;29;20194;-67
2024/03/03 01:44:16;;;;;;;27.65;11.15;;;;;;;8.65;100.00;100042.03;4879881;29;20198;-67
2024/03/03 01:46:45;;;;;;;16.13;10.85;;;;;;;8.59;100.00;100036.66;4876294;29;20666;-66
2024/03/03 01:49:16;;;;;;;11.90;9.93;;;;;;;8.57;100.00;100036.03;4876883;29;20233;-65
2024/03/03 01:51:47;;;;;;;17.25;11.05;;;;;;;8.50;100.00;100035.22;4876635;29;20200;-66
2024/03/03 01:54:18;;;;;;;12.70;9.57;;;;;;;8.51;100.00;100035.03;4878569;29;20570;-65
2024/03/03 01:56:50;;;;;;;19.42;11.32;;;;;;;8.38;100.00;100039.56;4871282;29;20470;-65
2024/03/03 01:59:19;;;;;;;14.40;8.70;;;;;;;8.43;100.00;100026.28;4871571;29;20341;-66
2024/03/03 02:01:50;;;;;;;19.17;9.82;;;;;;;8.41;100.00;100028.38;4867616;29;20199;-65
2024/03/03 02:04:19;;;;;;;19.10;12.00;;;;;;;8.37;100.00;100032.53;4872351;29;20208;-66
2024/03/03 02:06:50;;;;;;;13.05;8.85;;;;;;;8.39;100.00;100031.28;4869624;29;20187;-64
2024/03/03 02:09:20;;;;;;;15.07;10.32;;;;;;;8.35;100.00;100032.75;4873934;29;20273;-65
2024/03/03 02:11:50;;;;;;;16.88;9.93;;;;;;;8.28;100.00;100027.31;4867858;29;20246;-65
2024/03/03 02:14:20;;;;;;;16.73;10.15;;;;;;;8.24;100.00;100026.06;4878190;29;20206;-67
2024/03/03 02:16:49;;;;;;;17.45;8.00;;;;;;;8.36;100.00;100020.94;4872465;29;20215;-67
2024/03/03 02:19:19;;;;;;;15.00;7.53;;;;;;;8.43;100.00;100031.69;4875247;29;20228;-66
2024/03/03 02:21:50;;;;;;;15.35;10.43;;;;;;;8.38;100.00;100021.53;4876846;29;20290;-66
2024/03/03 02:24:19;;;;;;;14.98;8.82;;;;;;;8.31;100.00;100018.03;4877692;29;20199;-67
2024/03/03 02:26:48;;;;;;;19.00;9.18;;;;;;;8.20;100.00;100024.84;4881599;29;20225;-66
2024/03/03 02:29:17;;;;;;;13.73;9.70;;;;;;;8.26;100.00;100023.19;4873696;29;20218;-66
2024/03/03 02:31:46;;;;;;;18.25;10.15;;;;;;;8.34;100.00;100017.59;4879352;29;20727;-64
2024/03/03 02:34:15;;;;;;;19.95;10.18;;;;;;;8.25;100.00;100019.66;4874410;29;20667;-66
2024/03/03 02:36:44;;;;;;;19.10;8.55;;;;;;;8.22;100.00;100009.31;4873679;29;20529;-65
2024/03/03 02:39:16;;;;;;;12.35;8.02;;;;;;;8.23;100.00;100007.41;4879754;29;20219;-65
2024/03/03 02:41:45;;;;;;;21.50;9.27;;;;;;;8.26;100.00;100002.44;4875876;29;20258;-65
2024/03/03 02:44:14;;;;;;;12.63;9.40;;;;;;;8.23;100.00;100016.31;4878248;29;20277;-65
2024/03/03 02:46:43;;;;;;;19.98;11.85;;;;;;;8.28;100.00;100013.00;4874803;29;20195;-67
2024/03/03 02:49:12;;;;;;;18.10;9.93;;;;;;;8.17;100.00;100011.78;4872362;29;20718;-66
2024/03/03 02:51:42;;;;;;;16.33;9.55;;;;;;;8.11;100.00;100011.78;4874148;29;20209;-67
2024/03/03 02:54:11;;;;;;;9.85;5.97;;;;;;;8.15;100.00;100015.72;4876887;29;20259;-65
2024/03/03 02:56:41;;;;;;;9.38;8.38;;;;;;;8.04;100.00;100011.78;4877848;29;20190;-66
2024/03/03 02:59:10;;;;;;;17.08;9.88;;;;;;;8.11;100.00;100007.22;4879255;29;20227;-66
2024/03/03 03:01:39;;;;;;;13.52;11.00;;;;;;;8.27;100.00;100005.97;4875419;29;20195;-66
2024/03/03 03:04:08;;;;;;;26.00;11.55;;;;;;;8.16;100.00;100006.59;4877811;29;20195;-67
2024/03/03 03:06:37;;;;;;;11.25;7.82;;;;;;;8.18;100.00;100004.53;4875528;29;20199;-66
2024/03/03 03:09:06;;;;;;;10.30;8.27;;;;;;;8.13;100.00;100005.13;4870846;29;20298;-66
2024/03/03 03:11:37;;;;;;;19.40;8.35;;;;;;;8.16;100.00;100010.13;4870811;29;20199;-66
2024/03/03 03:14:07;;;;;;;16.10;12.38;;;;;;;8.20;100.00;100000.59;4876734;29;20202;-64
2024/03/03 03:16:41;;;;;;;15.48;9.73;;;;;;;8.14;100.00;100000.56;4878155;29;20199;-66
2024/03/03 03:19:11;;;;;;;13.68;11.40;;;;;;;8.12;100.00;99998.09;4879586;29;20425;-65
2024/03/03 03:21:40;;;;;;;14.18;8.57;;;;;;;8.13;100.00;99999.75;4873869;29;20608;-64
2024/03/03 03:24:09;;;;;;;20.15;9.75;;;;;;;8.20;100.00;99994.34;4872627;29;20278;-65
2024/03/03 03:26:38;;;;;;;20.08;9.65;;;;;;;8.19;100.00;99992.69;4878581;29;20195;-65
2024/03/03 03:29:08;;;;;;;17.40;9.88;;;;;;;8.26;100.00;99994.38;4873814;29;20226;-66
2024/03/03 03:31:37;;;;;;;18.63;11.85;;;;;;;8.22;100.00;99992.28;4878386;29;20207;-67
2024/03/03 03:34:06;;;;;;;26.15;11.35;;;;;;;8.17;100.00;99994.78;4876580;29;20202;-65
2024/03/03 03:36:34;;;;;;;16.63;7.30;;;;;;;8.17;100.00;99984.84;4878399;29;20230;-64
2024/03/03 03:39:10;;;;;;;14.85;9.13;;;;;;;8.23;100.00;99994.75;4875968;29;20321;-66
2024/03/03 03:41:45;;;;;;;16.55;8.63;;;;;;;8.18;100.00;99989.16;4874684;29;20286;-65
2024/03/03 03:44:17;;;;;;;15.77;8.82;;;;;;;8.21;100.00;99991.47;4878232;29;20222;-66
2024/03/03 03:46:46;;;;;;;18.38;10.18;;;;;;;8.17;100.00;99990.22;4873299;29;20560;-65
2024/03/03 03:49:15;;;;;;;20.77;10.30;;;;;;;8.21;100.00;99996.84;4878117;29;20218;-65
2024/03/03 03:51:45;;;;;;;12.40;7.72;;;;;;;8.21;100.00;99996.03;4878173;29;20282;-64
2024/03/03 03:54:14;;;;;;;17.05;9.73;;;;;;;8.23;100.00;99988.53;4877014;29;20203;-66
2024/03/03 03:56:44;;;;;;;16.10;10.48;;;;;;;8.19;100.00;99993.53;4867407;29;20188;-65
2024/03/03 03:59:14;;;;;;;15.25;11.40;;;;;;;8.24;100.00;99995.59;4874327;29;20237;-67
2024/03/03 04:01:44;;;;;;;17.27;9.35;;;;;;;8.16;100.00;100004.72;4876177;29;20267;-66
2024/03/03 04:04:13;;;;;;;16.77;9.30;;;;;;;8.21;100.00;99991.47;4871907;29;20194;-65
2024/03/03 04:06:42;;;;;;;14.70;10.32;;;;;;;8.17;100.00;99990.22;4873715;29;20205;-65
2024/03/03 04:09:12;;;;;;;13.80;7.65;;;;;;;8.21;100.00;99996.84;4877935;29;20222;-66
2024/03/03 04:11:41;;;;;;;31.33;13.80;;;;;;;8.16;100.00;99993.94;4874147;29;20256;-65
2024/03/03 04:14:10;;;;;;;18.17;12.65;;;;;;;8.10;100.00;99993.94;4870882;29;20633;-67
2024/03/03 04:16:40;;;;;;;16.30;9.25;;;;;;;8.04;100.00;99994.78;4869625;29;20277;-66
2024/03/03 04:19:09;;;;;;;16.25;10.48;;;;;;;8.12;100.00;99992.72;4875824;29;20702;-66
2024/03/03 04:21:42;;;;;;;21.20;10.07;;;;;;;8.09;100.00;99987.72;4876214;29;20207;-65
2024/03/03 04:24:11;;;;;;;19.25;9.80;;;;;;;8.17;100.00;99989.41;4875656;29;20716;-66
2024/03/03 04:26:42;;;;;;;9.75;7.85;;;;;;;8.18;100.00;99988.38;4880308;29;20248;-65
2024/03/03 04:29:11;;;;;;;19.50;11.82;;;;;;;8.09;100.00;99978.81;4873922;29;20714;-65
2024/03/03 04:31:44;;;;;;;11.82;8.88;;;;;;;8.14;100.00;99984.41;4880644;29;20753;-65
2024/03/03 04:34:13;;;;;;;16.70;10.48;;;;;;;8.24;100.00;99980.25;4881593;29;20186;-65
2024/03/03 04:36:45;;;;;;;17.23;12.70;;;;;;;8.23;100.00;99978.59;4881749;29;20285;-66
2024/03/03 04:39:16;;;;;;;16.70;11.93;;;;;;;8.28;100.00;99978.78;4877128;29;20237;-65
2024/03/03 04:41:47;;;;;;;16.17;12.00;;;;;;;8.26;100.00;99978.19;4872173;29;20206;-64
2024/03/03 04:44:16;;;;;;;14.90;9.52;;;;;;;8.24;100.00;99977.56;4876932;29;20208;-65
2024/03/03 04:46:46;;;;;;;17.13;10.02;;;;;;;8.23;100.00;99975.91;4881155;29;20615;-65
2024/03/03 04:49:15;;;;;;;17.30;9.25;;;;;;;8.21;100.00;99980.69;4881382;29;20251;-66
2024/03/03 04:51:44;;;;;;;18.75;9.77;;;;;;;8.32;100.00;99981.13;4881430;29;20199;-65
2024/03/03 04:54:13;;;;;;;16.80;9.50;;;;;;;8.30;100.00;99981.31;4877000;29;20631;-66
2024/03/03 04:56:42;;;;;;;19.08;12.23;;;;;;;8.28;100.00;99972.56;4872351;29;20213;-66
2024/03/03 04:59:12;;;;;;;17.98;11.00;;;;;;;8.37;100.00;99968.69;4878004;29;20227;-66
2024/03/03 05:01:42;;;;;;;23.75;9.57;;;;;;;8.38;100.00;99969.47;4872701;29;20253;-65
2024/03/03 05:04:13;;;;;;;13.68;10.68;;;;;;;8.42;100.00;99968.03;4876315;29;20199;-65
2024/03/03 05:06:44;;;;;;;11.15;10.02;;;;;;;8.49;100.00;99974.22;4880034;29;20242;-65
2024/03/03 05:09:14;;;;;;;25.52;11.48;;;;;;;8.48;100.00;99981.50;4872453;29;20587;-65
2024/03/03 05:11:44;;;;;;;21.27;10.35;;;;;;;8.43;100.00;99977.75;4880418;29;20221;-65
2024/03/03 05:14:13;;;;;;;32.78;12.15;;;;;;;8.43;100.00;99983.16;4881538;29;20278;-66
2024/03/03 05:16:41;;;;;;;14.10;8.90;;;;;;;8.42;100.00;99979.66;4881107;29;20237;-65
2024/03/03 05:19:12;;;;;;;21.40;11.43;;;;;;;8.42;100.00;99986.91;4879038;29;20225;-66
2024/03/03 05:21:41;;;;;;;10.82;8.18;;;;;;;8.37;100.00;99984.03;4876728;29;20297;-65
2024/03/03 05:24:11;;;;;;;18.70;9.15;;;;;;;8.41;100.00;99987.94;4878800;29;20768;-66
2024/03/03 05:26:40;;;;;;;20.40;12.23;;;;;;;8.41;100.00;99990.66;4875461;29;20680;-66
2024/03/03 05:29:09;;;;;;;20.42;13.30;;;;;;;8.49;100.00;99987.72;4878853;29;20797;-67
2024/03/03 05:31:42;;;;;;;14.55;10.43;;;;;;;8.49;100.00;99996.63;4872708;29;20234;-66
2024/03/03 05:34:13;;;;;;;13.23;10.90;;;;;;;8.49;100.00;99991.25;4873266;29;20221;-65
2024/03/03 05:36:43;;;;;;;14.57;10.80;;;;;;;8.44;100.00;99985.66;4873490;29;20624;-66
2024/03/03 05:39:13;;;;;;;18.63;10.32;;;;;;;8.49;100.00;99988.53;4880573;29;20313;-66
2024/03/03 05:41:42;;;;;;;18.50;10.18;;;;;;;8.49;100.00;99990.41;4875957;29;20207;-66
2024/03/03 05:44:11;;;;;;;22.00;12.00;;;;;;;8.43;100.00;99984.00;4878958;29;20626;-66
2024/03/03 05:46:40;;;;;;;12.13;8.52;;;;;;;8.57;100.00;99990.19;4876846;29;20570;-64
2024/03/03 05:49:09;;;;;;;16.85;11.10;;;;;;;8.56;100.00;99989.38;4875678;29;20639;-65
2024/03/03 05:51:39;;;;;;;16.35;11.38;;;;;;;8.62;100.00;99996.59;4872214;29;20203;-66
2024/03/03 05:54:08;;;;;;;14.95;10.90;;;;;;;8.62;100.00;99998.47;4872206;29;20685;-67
2024/03/03 05:56:37;;;;;;;24.70;14.98;;;;;;;8.69;100.00;99999.28;4871678;29;20199;-66
2024/03/03 05:59:06;;;;;;;13.15;9.88;;;;;;;8.81;100.00;100008.38;4879464;29;20230;-66
2024/03/03 06:01:35;;;;;;;22.92;15.20;;;;;;;8.80;100.00;100012.13;4879653;29;20191;-66
2024/03/03 06:04:04;;;;;;;26.08;10.60;;;;;;;8.91;100.00;100008.75;4867002;29;20195;-66
2024/03/03 06:06:33;;;;;;;20.30;12.30;;;;;;;8.92;100.00;100005.03;4871230;29;20205;-66
2024/03/03 06:09:07;;;;;;;19.60;12.27;;;;;;;8.88;100.00;100013.75;4878366;29;20729;-66
2024/03/03 06:11:37;;;;;;;17.02;10.90;;;;;;;9.02;100.00;100005.41;4879541;29;20212;-66
2024/03/03 06:14:07;;;;;;;14.65;11.00;;;;;;;9.06;100.00;100009.31;4879540;29;20223;-67
2024/03/03 06:16:36;;;;;;;20.65;12.57;;;;;;;9.05;100.00;100013.06;4872948;29;20205;-66
2024/03/03 06:19:06;;;;;;;18.67;9.30;;;;;;;9.09;100.00;100011.63;4879299;29;20582;-66
2024/03/03 06:21:35;;;;;;;14.98;9.02;;;;;;;9.02;100.00;100015.38;4879299;29;20561;-66
2024/03/03 06:24:06;;;;;;;16.23;11.27;;;;;;;9.15;100.00;100015.31;4877782;29;20210;-66
2024/03/03 06:26:35;;;;;;;27.10;13.73;;;;;;;9.15;100.00;100021.53;4871150;29;20298;-65
2024/03/03 06:29:05;;;;;;;19.80;10.05;;;;;;;9.22;100.00;100023.38;4877797;29;20455;-64
2024/03/03 06:31:35;;;;;;;19.17;11.95;;;;;;;9.20;100.00;100022.78;4871639;29;20217;-66
2024/03/03 06:34:04;;;;;;;18.70;12.13;;;;;;;9.22;100.00;100026.91;4879427;29;20198;-66
2024/03/03 06:36:32;;;;;;;15.52;10.70;;;;;;;9.20;100.00;100026.28;4870287;29;20195;-66
2024/03/03 06:39:02;;;;;;;27.90;12.55;;;;;;;9.22;100.00;100026.09;4872033;29;20230;-67
2024/03/03 06:41:33;;;;;;;24.03;11.87;;;;;;;9.26;100.00;100024.59;4879700;29;20207;-65
2024/03/03 06:44:03;;;;;;;22.07;13.47;;;;;;;9.27;100.00;100028.97;4871997;29;20804;-65
2024/03/03 06:46:31;;;;;;;27.13;10.17;;;;;;;9.41;100.00;100025.16;4879120;29;20443;-66
2024/03/03 06:49:00;;;;;;;20.63;10.10;;;;;;;9.45;100.00;100020.97;4875512;29;20522;-67
2024/03/03 06:51:29;;;;;;;16.52;10.73;;;;;;;9.40;100.00;100027.03;4869071;29;20432;-67
2024/03/03 06:53:58;;;;;;;21.27;9.90;;;;;;;9.52;100.00;100022.63;4878763;29;20563;-66
2024/03/03 06:56:27;;;;;;;15.55;9.77;;;;;;;9.56;100.00;100023.00;4872531;29;20422;-64
2024/03/03 06:58:59;;;;;;;16.83;11.33;;;;;;;9.69;100.00;100017.53;4866982;29;20593;-65
2024/03/03 07:01:30;;;;;;;19.50;12.07;;;;;;;9.71;100.00;100014.59;4873724;29;20466;-65
2024/03/03 07:04:10;;;;;;;18.67;10.50;;;;;;;9.74;100.00;100014.16;4878424;29;20435;-65
2024/03/03 07:06:41;;;;;;;19.67;11.77;;;;;;;9.88;100.00;100016.56;4872242;29;20507;-66
2024/03/03 07:09:10;;;;;;;24.63;12.03;;;;;;;9.95;100.00;100017.34;4877471;29;20474;-67
2024/03/03 07:11:39;;;;;;;22.83;16.07;;;;;;;10.12;100.00;100016.81;4871709;29;20422;-66
2024/03/03 07:14:09;;;;;;;18.80;11.23;;;;;;;10.23;100.00;100025.06;4877699;29;20431;-65
2024/03/03 07:16:38;;;;;;;17.93;11.23;;;;;;;10.31;100.00;100019.34;4871113;29;20795;-65
2024/03/03 07:19:07;;;;;;;18.63;11.80;;;;;;;10.27;100.00;100014.63;4873488;29;20875;-66
2024/03/03 07:21:36;;;;;;;18.10;11.60;;;;;;;10.32;100.00;100017.47;4874144;29;20518;-66
2024/03/03 07:24:05;;;;;;;26.50;13.37;;;;;;;10.27;100.00;100026.25;4875047;29;20523;-66
2024/03/03 07:26:34;;;;;;;13.33;10.07;;;;;;;10.34;100.00;100024.34;4874007;29;20940;-65
2024/03/03 07:29:03;;;;;;;27.50;11.20;;;;;;;10.43;100.00;100024.88;4871804;29;20533;-66
2024/03/03 07:31:34;;;;;;;14.77;10.63;;;;;;;10.48;100.00;100026.91;4878335;29;20578;-66
2024/03/03 07:34:03;;;;;;;27.00;11.50;;;;;;;10.45;100.00;100034.44;4878350;29;20415;-66
2024/03/03 07:36:32;;;;;;;21.63;11.70;;;;;;;10.48;100.00;100024.22;4873977;29;20450;-67
2024/03/03 07:39:01;;;;;;;18.40;11.73;;;;;;;10.44;100.00;100024.66;4873459;29;20463;-66
2024/03/03 07:41:30;;;;;;;12.53;10.47;;;;;;;10.51;100.00;100027.28;4874967;29;20449;-66
2024/03/03 07:43:59;;;;;;;13.50;9.20;;;;;;;10.55;100.00;100031.22;4877072;29;20527;-66
2024/03/03 07:46:29;;;;;;;26.10;11.33;;;;;;;10.63;100.00;100024.69;4878537;29;20491;-67
2024/03/03 07:49:01;;;;;;;12.90;9.20;;;;;;;10.69;100.00;100024.63;4873293;29;20463;-68
2024/03/03 07:51:30;;;;;;;15.60;9.80;;;;;;;10.65;100.00;100028.81;4878474;29;20439;-66
2024/03/03 07:53:59;;;;;;;19.53;11.73;;;;;;;10.72;100.00;100015.22;4873193;29;21022;-66
2024/03/03 07:56:28;;;;;;;27.93;13.43;;;;;;;10.80;100.00;100025.75;4875986;29;20954;-65
2024/03/03 07:59:02;;;;;;;19.43;14.97;;;;;;;10.84;100.00;100027.78;4876157;29;20833;-66
2024/03/03 08:01:33;;;;;;;20.20;10.77;;;;;;;10.83;100.00;100028.84;4877377;29;20444;-66
2024/03/03 08:04:06;;;;;;;25.67;10.10;;;;;;;10.97;100.00;100034.13;4879008;29;20443;-66
2024/03/03 08:06:35;;;;;;;22.77;13.83;;;;;;;11.17;100.00;100034.72;4878793;29;20816;-67
2024/03/03 08:09:04;;;;;;;17.00;9.93;;;;;;;11.42;100.00;100035.44;4880469;29;20514;-65
2024/03/03 08:11:35;;;;;;;14.93;10.07;;;;;;;11.45;100.00;100029.56;4881727;29;20427;-65
2024/03/03 08:14:04;;;;;;;15.00;9.60;;;;;;;11.49;100.00;100030.75;4877890;29;20435;-66
2024/03/03 08:16:34;;;;;;;14.53;10.37;;;;;;;11.65;100.00;100030.13;4878819;29;20427;-65
2024/03/03 08:19:04;;;;;;;11.83;9.97;;;;;;;11.62;100.00;100035.97;4879044;29;20524;-64
2024/03/03 08:21:33;;;;;;;20.87;9.67;;;;;;;11.81;100.00;100031.41;4877003;29;20848;-66
2024/03/03 08:24:03;;;;;;;15.10;10.33;;;;;;;12.01;100.00;100028.34;4881604;29;20446;-65
2024/03/03 08:26:32;;;;;;;17.57;11.00;;;;;;;12.07;100.00;100039.09;4881526;29;20501;-66
2024/03/03 08:29:01;;;;;;;16.97;9.80;;;;;;;12.07;100.00;100027.44;4881254;29;20458;-66
2024/03/03 08:31:33;;;;;;;23.17;15.50;;;;;;;12.15;100.00;100024.41;4881804;29;20894;-66
2024/03/03 08:34:04;;;;;;;20.97;11.80;;;;;;;11.94;100.00;100033.06;4881454;29;20415;-65
2024/03/03 08:36:33;;;;;;;15.20;9.37;;;;;;;11.81;100.00;100017.84;4877183;29;20443;-65
2024/03/03 08:39:03;;;;;;;10.03;8.93;;;;;;;11.69;100.00;100015.06;4873631;29;20466;-66
2024/03/03 08:41:32;;;;;;;17.73;11.40;;;;;;;11.59;100.00;100020.19;4876468;29;20623;-65
2024/03/03 08:44:01;;;;;;;20.83;11.00;;;;;;;11.66;100.00;100020.94;4881723;29;20434;-67
2024/03/03 08:46:30;;;;;;;16.50;12.40;;;;;;;11.60;100.00;100027.28;4880733;29;20793;-65
2024/03/03 08:48:59;;;;;;;10.97;8.30;;;;;;;11.58;100.00;100020.41;4881740;29;20459;-65
2024/03/03 08:51:30;;;;;;;12.67;8.87;;;;;;;11.62;100.00;100010.75;4879523;29;20964;-64
2024/03/03 08:53:59;;;;;;;10.07;9.13;;;;;;;11.55;100.00;100013.59;4881963;29;20499;-65
2024/03/03 08:56:27;;;;;;;12.10;8.53;;;;;;;11.67;100.00;100014.44;4879020;29;20423;-65
2024/03/03 08:58:56;;;;;;;16.00;8.00;;;;;;;11.68;100.00;100005.25;4868857;29;20460;-66
2024/03/03 09:01:25;;;;;;;22.63;12.87;;;;;;;11.96;100.00;100012.78;4877530;29;20459;-65
2024/03/03 09:03:55;;;;;;;19.63;10.83;;;;;;;11.99;100.00;100016.94;4879032;29;20499;-66
2024/03/03 09:06:25;;;;;;;14.20;8.90;;;;;;;12.02;100.00;100006.44;4882464;29;20406;-67
2024/03/03 09:08:55;;;;;;;13.53;9.07;;;;;;;12.13;100.00;100004.81;4880139;29;20475;-65
2024/03/03 09:11:24;;;;;;;15.80;9.77;;;;;;;12.25;100.00;100002.13;4876403;29;20457;-66
2024/03/03 09:13:53;;;;;;;16.27;9.20;;;;;;;12.23;100.00;99996.94;4876890;29;20440;-66
2024/03/03 09:16:22;;;;;;;15.60;10.67;;;;;;;12.31;97.96;99988.44;4876636;29;20521;-66
2024/03/03 09:18:53;;;;;;;13.97;8.60;;;;;;;12.33;97.24;99999.88;4879563;29;20438;-63
2024/03/03 09:21:22;;;;;;;13.90;9.00;;;;;;;12.41;96.76;100001.41;4880686;29;20463;-65
2024/03/03 09:23:51;;;;;;;14.93;9.40;;;;;;;12.60;95.77;100002.94;4880377;29;20421;-65
2024/03/03 09:26:21;;;;;;;9.27;7.90;;;;;;;12.54;95.39;99993.84;4875807;29;20436;-65
2024/03/03 09:28:50;;;;;;;15.13;9.60;;;;;;;12.60;95.19;99990.19;4871175;29;20517;-64
2024/03/03 09:31:19;;;;;;;11.90;8.70;;;;;;;12.87;93.78;99995.13;4864128;29;20203;-65
2024/03/03 09:33:48;;;;;;;9.87;7.27;;;;;;;13.10;92.04;100005.13;4874305;29;20801;-65
2024/03/03 09:36:17;;;;;;;14.40;8.63;;;;;;;13.11;90.35;99993.19;4878118;29;20419;-67
2024/03/03 09:38:47;;;;;;;11.53;7.70;;;;;;;13.26;89.35;99996.25;4874677;29;20441;-67
2024/03/03 09:41:18;;;;;;;17.33;7.33;;;;;;;13.08;89.58;99991.75;4878470;29;20437;-66
2024/03/03 09:43:56;;;;;;;9.20;7.30;;;;;;;13.19;88.90;99988.22;4866844;29;20910;-67
2024/03/03 09:46:27;;;;;;;8.20;7.37;;;;;;;13.17;87.75;99984.91;4876523;29;20770;-69
2024/03/03 09:48:57;;;;;;;11.87;6.60;;;;;;;13.29;87.35;99982.19;4878626;29;20907;-69
2024/03/03 09:51:28;;;;;;;13.43;8.80;;;;;;;13.20;87.72;99989.88;4874392;29;20428;-68
2024/03/03 09:53:58;;;;;;;8.20;7.33;;;;;;;13.20;87.78;99987.16;4877634;29;20537;-68
2024/03/03 09:56:27;;;;;;;11.33;9.03;;;;;;;13.23;86.82;99983.97;4875437;29;20470;-69
2024/03/03 09:58:58;;;;;;;13.90;7.37;;;;;;;13.44;86.11;99991.44;4876121;29;20783;-69
2024/03/03 10:01:29;;;;;;;8.10;6.67;;;;;;;13.61;84.21;99985.22;4877548;29;20500;-68
2024/03/03 10:03:59;;;;;;;11.30;8.23;;;;;;;13.56;83.24;99985.13;4877651;29;20458;-68
2024/03/03 10:06:30;;;;;;;12.97;7.10;;;;;;;13.43;83.89;99987.09;4877465;29;20501;-68
2024/03/03 10:09:04;;;;;;;7.80;6.60;;;;;;;13.55;83.49;99986.22;4864592;29;20474;-68
2024/03/03 10:11:33;;;;;;;6.97;6.00;;;;;;;13.67;83.62;99985.06;4875370;29;20416;-68
2024/03/03 10:14:04;;;;;;;9.70;7.30;;;;;;;13.78;81.74;99986.09;4872829;29;20434;-67
2024/03/03 10:16:34;;;;;;;13.30;8.23;;;;;;;13.89;80.79;99988.72;4878528;29;20497;-69
2024/03/03 10:19:05;;;;;;;10.13;7.43;;;;;;;14.00;80.38;99984.28;4877294;29;20438;-67
2024/03/03 10:21:36;;;;;;;10.77;6.77;;;;;;;13.98;79.05;99975.56;4875380;29;20468;-68
2024/03/03 10:24:23;;;;;;;14.10;7.10;;;;;;;14.01;79.14;99982.41;4874986;29;20418;-66
2024/03/03 10:26:53;;;;;;;12.63;8.40;;;;;;;14.18;76.86;99970.47;4877670;29;20446;-67
2024/03/03 10:29:25;;;;;;;10.33;6.30;;;;;;;14.15;77.13;99970.13;4876626;29;20462;-68
2024/03/03 10:31:55;;;;;;;9.03;5.83;;;;;;;14.30;77.17;99970.34;4874172;29;20443;-67
2024/03/03 10:34:25;;;;;;;11.70;7.30;;;;;;;14.33;77.60;99967.97;4878553;29;20406;-68
2024/03/03 10:37:02;;;;;;;11.33;7.70;;;;;;;14.47;76.58;99959.50;4869090;29;20418;-71
2024/03/03 10:39:33;;;;;;;14.77;7.43;;;;;;;14.42;75.39;99959.41;4877653;29;20453;-67
2024/03/03 10:42:06;;;;;;;8.20;5.47;;;;;;;14.47;74.56;99956.78;4874267;29;20548;-67
2024/03/03 10:44:37;;;;;;;5.60;4.37;;;;;;;14.58;73.65;99966.72;4878242;29;20529;-69
2024/03/03 10:47:08;;;;;;;8.90;5.70;;;;;;;14.43;74.71;99967.31;4877857;29;21126;-68
2024/03/03 10:49:39;;;;;;;6.07;5.47;;;;;;;14.24;75.44;99964.00;4862872;29;20449;-68
2024/03/03 10:52:10;;;;;;;5.57;4.40;;;;;;;14.21;76.26;99966.41;4872715;29;20909;-68
2024/03/03 10:54:41;;;;;;;8.13;7.03;;;;;;;14.47;75.33;99959.50;4876945;29;20522;-68
2024/03/03 10:57:12;;;;;;;7.90;7.10;;;;;;;14.52;73.88;99965.00;4872752;29;20955;-68
2024/03/03 10:59:44;;;;;;;8.07;5.93;;;;;;;14.73;71.27;99956.03;4874113;29;20483;-67
2024/03/03 11:02:14;;;;;;;8.93;5.27;;;;;;;14.84;70.19;99962.44;4870524;29;20435;-68
2024/03/03 11:04:44;;;;;;;7.10;6.27;;;;;;;14.72;71.04;99957.09;4874599;29;20847;-71
2024/03/03 11:07:13;;;;;;;9.10;5.67;;;;;;;14.65;72.38;99959.19;4876598;29;20402;-68
2024/03/03 11:09:43;;;;;;;8.83;5.97;;;;;;;14.69;72.45;99953.00;4871035;29;20455;-67
2024/03/03 11:12:17;;;;;;;5.70;4.73;;;;;;;14.72;72.18;99959.81;4868251;29;20469;-67
2024/03/03 11:14:48;;;;;;;6.70;5.30;;;;;;;14.62;72.31;99954.28;4875842;29;20406;-66
2024/03/03 11:17:20;;;;;;;10.20;5.50;;;;;;;14.53;72.29;99951.13;4873718;29;20918;-68
2024/03/03 11:19:50;;;;;;;11.23;7.27;;;;;;;14.35;74.07;99951.38;4869529;29;20430;-68
2024/03/03 11:22:24;;;;;;;10.40;5.23;;;;;;;14.42;74.12;99953.97;4871513;29;20462;-67
2024/03/03 11:25:00;;;;;;;11.60;5.93;;;;;;;14.73;73.00;99958.75;4876593;29;20419;-67
2024/03/03 11:27:30;;;;;;;7.40;5.90;;;;;;;14.37;78.81;99948.47;4871498;29;20439;-68
2024/03/03 11:30:00;;;;;;;12.30;6.23;;;;;;;14.32;80.18;99936.41;4872536;29;20433;-67